Date,TemperatureHighF,TemperatureAvgF,TemperatureLowF,DewpointHighF,DewpointAvgF,DewpointLowF,HumidityHigh,HumidityAvg,HumidityLow,PressureMaxIn,PressureMinIn,WindSpeedMaxMPH,WindSpeedAvgMPH,GustSpeedMaxMPH,PrecipitationSumIn
2013-1-1,48.1,39.2,33.1,37.7,32.0,26.5,88,76,62,30.26,30.18,16,4,16,0.00
2013-1-2,51.7,37.3,27.0,39.9,30.4,22.5,86,76,60,30.23,30.12,13,2,13,0.00
2013-1-3,52.2,37.8,26.5,41.0,31.2,21.8,86,77,64,30.25,30.14,12,2,12,0.01
2013-1-4,52.4,40.5,30.4,40.6,32.9,25.9,86,75,56,30.27,30.16,14,3,14,0.00
2013-1-5,53.6,43.3,32.0,45.2,38.1,27.8,92,82,71,30.25,30.05,13,2,13,0.13
2013-1-6,47.7,43.1,34.9,44.6,40.4,32.0,93,90,87,30.18,30.04,9,2,9,0.22
2013-1-7,55.1,41.4,32.0,48.1,37.6,29.7,93,87,74,30.25,30.14,5,1,5,0.01
2013-1-8,56.9,44.1,34.6,45.2,38.2,31.6,93,80,62,30.22,30.12,9,2,10,0.00
2013-1-9,52.9,43.5,35.3,47.7,38.9,31.7,91,84,74,30.14,29.95,15,3,15,0.01
2013-1-10,48.6,40.7,35.6,37.5,32.7,28.8,84,74,54,30.16,30.04,10,3,10,0.00
2013-1-11,49.0,39.7,30.2,38.1,32.6,25.4,85,76,61,30.23,30.10,10,3,10,0.02
2013-1-12,45.5,37.5,29.5,33.3,27.0,23.0,83,67,45,30.23,30.12,9,2,9,0.00
2013-1-13,45.4,35.9,26.3,28.0,20.9,14.1,78,57,33,30.24,30.15,11,3,11,0.00
2013-1-14,46.1,36.9,30.2,23.1,18.8,13.3,63,48,33,30.39,30.19,13,3,13,0.00
2013-1-15,49.0,36.8,26.3,31.0,24.9,18.5,78,63,42,30.45,30.37,12,2,12,0.00
2013-1-16,51.8,38.3,27.7,35.3,28.4,21.6,80,68,51,30.42,30.24,14,3,14,0.00
2013-1-17,56.9,40.7,28.4,36.5,29.5,23.0,89,66,43,30.25,30.14,13,3,13,0.01
2013-1-18,58.3,41.9,29.9,38.6,30.1,23.7,83,65,39,30.22,30.13,12,3,12,0.00
2013-1-19,56.9,42.0,28.3,40.7,31.5,21.5,86,67,51,30.24,30.15,16,3,16,0.00
2013-1-20,57.8,42.0,28.8,38.1,29.8,22.7,83,64,38,30.22,30.12,14,3,14,0.00
2013-1-21,57.8,43.2,28.4,42.0,33.2,21.5,91,68,52,30.17,30.08,13,3,13,0.01
2013-1-22,60.3,44.6,30.8,43.9,35.3,24.8,84,71,53,30.12,30.00,10,2,10,0.00
2013-1-23,54.0,48.0,43.0,47.9,42.8,36.6,88,82,76,30.09,29.94,8,1,8,0.09
2013-1-24,54.4,50.8,49.3,50.4,47.6,45.5,91,89,86,30.18,30.05,9,2,10,0.58
2013-1-25,63.7,54.8,49.1,57.8,51.1,45.7,93,87,78,30.18,30.03,10,2,10,0.12
2013-1-26,55.1,48.7,44.3,51.3,43.5,39.2,93,82,64,30.05,29.97,18,5,18,0.01
2013-1-27,53.6,44.9,36.7,41.8,37.1,31.5,88,75,45,30.15,30.04,12,3,12,0.00
2013-1-28,55.4,43.9,33.8,42.4,36.6,29.2,87,76,53,30.27,30.13,9,2,9,0.00
2013-1-29,56.5,45.2,36.5,46.3,39.1,32.9,89,80,66,30.33,30.24,8,2,8,0.01
2013-1-30,61.6,49.7,40.0,44.6,37.7,31.6,83,65,41,30.34,30.25,14,4,14,0.00
2013-1-31,61.0,46.7,33.8,48.0,38.2,28.1,84,73,59,30.28,30.17,13,3,13,0.00
2013-2-1,61.2,48.7,36.0,49.6,41.6,31.6,93,77,64,30.21,30.11,13,3,13,0.00
2013-2-2,61.0,48.8,40.0,51.1,42.6,35.5,88,80,66,30.27,30.19,8,1,8,0.01
2013-2-3,57.6,48.5,40.5,47.4,42.6,35.7,89,80,67,30.24,30.11,8,2,8,0.00
2013-2-4,62.3,46.5,33.8,51.5,40.6,30.0,90,81,65,30.17,30.03,7,1,7,0.00
2013-2-5,54.5,49.3,44.6,46.5,44.1,40.1,90,82,72,30.13,30.05,15,5,15,0.01
2013-2-6,57.6,46.0,36.4,45.9,39.7,32.5,88,79,61,30.17,30.09,9,2,9,0.00
2013-2-7,55.4,43.6,34.2,46.4,36.9,30.1,89,78,53,30.16,29.97,13,3,13,0.04
2013-2-8,52.6,43.1,35.5,43.2,37.3,30.8,90,80,67,29.99,29.91,12,2,12,0.04
2013-2-9,54.2,44.7,31.0,35.5,30.0,25.8,83,58,36,30.08,29.97,12,3,12,0.00
2013-2-10,56.3,41.8,29.2,37.6,30.8,23.0,82,66,45,30.10,29.99,15,2,15,0.00
2013-2-11,57.8,44.1,32.8,35.8,29.6,26.3,81,60,31,30.22,30.05,11,3,11,0.00
2013-2-12,58.1,43.8,31.3,40.0,31.5,24.1,78,63,40,30.34,30.22,9,2,9,0.00
2013-2-13,62.5,46.1,32.0,44.1,34.7,26.0,86,66,38,30.32,30.18,8,2,8,0.00
2013-2-14,63.7,49.9,35.6,43.7,37.5,29.8,84,64,43,30.24,30.15,14,3,14,0.00
2013-2-15,66.1,52.0,39.2,47.4,40.0,32.7,80,65,45,30.27,30.20,13,3,13,0.00
2013-2-16,65.0,50.1,37.1,48.3,39.3,30.5,82,67,47,30.23,30.03,12,2,12,0.00
2013-2-17,62.8,48.8,37.6,46.6,37.6,31.1,87,67,39,30.04,29.94,10,2,10,0.00
2013-2-18,52.4,44.7,34.9,43.5,37.1,27.9,85,75,65,30.02,29.94,14,5,14,0.00
2013-2-19,51.8,43.7,37.1,42.1,37.5,31.8,88,79,68,29.95,29.72,18,5,18,0.45
2013-2-20,56.2,43.4,30.6,40.8,35.2,26.9,88,74,50,30.04,29.81,12,3,12,0.00
2013-2-21,56.9,45.2,35.6,39.3,34.3,31.1,88,68,38,30.16,30.02,17,3,17,0.00
2013-2-22,61.2,46.2,32.0,43.9,36.0,26.9,86,69,43,30.23,30.15,11,3,11,0.00
2013-2-23,57.4,49.1,38.0,44.2,35.6,25.8,89,63,31,30.23,30.13,15,5,15,0.00
2013-2-24,58.9,45.5,34.4,32.4,26.4,24.2,70,50,27,30.24,30.15,16,4,16,0.00
2013-2-25,61.6,45.8,32.0,44.1,32.9,23.1,73,61,44,30.26,30.15,12,2,12,0.00
2013-2-26,64.8,49.1,33.5,30.4,25.8,19.6,80,45,21,30.20,30.11,20,4,20,0.00
2013-2-27,67.1,49.2,31.9,38.8,31.7,22.7,73,53,24,30.35,30.20,8,2,8,0.00
2013-2-28,68.0,52.1,38.7,52.7,42.3,31.2,82,70,56,30.43,30.34,11,2,11,0.00
2013-3-1,68.8,54.2,39.6,50.4,43.4,34.5,89,68,48,30.42,30.23,13,3,13,0.00
2013-3-2,73.1,57.6,43.7,55.7,47.0,37.8,84,69,52,30.24,30.04,8,2,8,0.00
2013-3-3,64.1,56.0,47.5,50.7,46.1,41.3,83,70,51,30.09,30.01,15,4,15,0.00
2013-3-4,60.7,49.4,41.6,50.3,40.8,35.3,83,72,63,30.12,30.02,9,2,9,0.00
2013-3-5,61.4,50.1,38.0,45.2,39.5,32.6,86,68,44,30.05,29.81,21,6,21,0.00
2013-3-6,58.1,50.9,40.7,44.9,40.6,33.1,84,69,53,30.06,29.81,24,6,24,0.09
2013-3-7,57.8,47.2,36.5,43.3,38.0,30.8,84,71,50,29.98,29.83,10,2,10,0.09
2013-3-8,60.1,49.2,40.9,48.0,42.4,36.4,88,78,61,30.04,29.81,21,6,21,0.02
2013-3-9,66.2,50.9,38.2,45.4,37.7,28.7,88,64,25,30.29,30.04,16,4,16,0.00
2013-3-10,66.6,50.8,35.1,42.8,34.0,26.1,82,57,22,30.33,30.23,12,3,12,0.00
2013-3-11,72.4,53.5,36.9,47.4,38.1,29.7,79,58,34,30.25,30.09,9,2,9,0.00
2013-3-12,73.3,56.1,39.6,49.1,41.9,32.7,79,61,39,30.14,30.05,11,2,11,0.00
2013-3-13,75.8,59.0,42.1,54.9,46.4,35.7,82,64,46,30.15,30.05,13,3,13,0.00
2013-3-14,77.0,59.4,45.7,60.1,48.1,40.0,84,67,52,30.15,30.06,11,2,11,0.00
2013-3-15,74.2,56.6,42.7,54.9,43.6,35.2,80,63,46,30.12,30.02,9,2,9,0.00
2013-3-16,71.6,55.8,45.0,54.3,45.4,40.5,87,70,41,30.09,30.01,13,3,13,0.00
2013-3-17,69.3,53.4,39.4,47.5,40.6,33.5,82,64,33,30.12,30.02,10,2,10,0.00
2013-3-18,69.8,53.5,37.4,49.2,40.9,31.4,82,64,45,30.11,30.01,10,2,10,0.00
2013-3-19,74.2,55.9,42.8,50.0,42.6,35.5,80,63,38,30.12,30.04,12,2,12,0.08
2013-3-20,68.2,57.2,51.1,54.7,49.8,45.2,88,77,53,30.12,30.04,15,4,15,0.04
2013-3-21,64.6,53.5,44.3,48.6,42.0,36.5,84,67,41,30.11,29.99,13,4,13,0.00
2013-3-22,66.1,52.3,38.9,36.8,23.5,11.4,80,39,15,30.10,30.01,20,5,20,0.00
2013-3-23,67.1,53.6,40.9,35.7,28.5,23.2,53,39,24,30.14,30.02,10,4,10,0.00
2013-3-24,73.1,54.2,36.9,48.4,36.8,27.2,71,53,34,30.07,29.94,10,2,10,0.00
2013-3-25,66.6,51.6,38.3,48.3,40.4,31.4,81,66,47,30.00,29.92,11,3,11,0.00
2013-3-26,70.2,55.7,46.4,51.2,44.4,39.5,80,67,47,29.99,29.90,9,4,9,0.00
2013-3-27,68.8,56.4,43.9,52.2,46.3,37.2,82,70,53,30.00,29.93,13,4,13,0.00
2013-3-28,72.4,61.2,52.9,55.1,50.4,46.3,82,69,49,30.07,29.99,10,2,10,0.00
2013-3-29,76.0,62.0,49.9,54.5,49.3,44.3,84,65,44,30.08,29.99,13,4,13,0.00
2013-3-30,74.0,61.8,54.7,56.3,50.7,46.5,81,68,44,30.05,29.95,13,3,13,0.08
2013-3-31,69.5,59.6,49.9,54.2,50.0,44.8,85,72,50,30.07,29.97,14,3,14,0.06
2013-4-1,70.2,59.0,49.5,55.4,50.6,42.8,87,75,56,30.14,30.04,10,2,10,0.09
2013-4-2,72.4,56.9,42.8,54.9,47.5,38.4,87,72,53,30.17,30.06,8,2,8,0.00
2013-4-3,74.9,59.6,45.4,54.6,47.9,40.1,87,68,45,30.13,29.96,13,2,13,0.00
2013-4-4,69.1,59.4,52.2,57.9,51.8,46.8,86,76,62,30.10,29.96,13,4,13,0.15
2013-4-5,66.6,58.5,52.2,54.4,50.2,46.9,85,74,60,30.17,30.09,14,4,14,0.01
2013-4-6,68.2,58.9,52.7,55.3,50.3,47.3,83,74,59,30.17,30.11,11,4,11,0.00
2013-4-7,67.3,57.0,50.0,55.1,48.9,44.8,88,75,58,30.16,29.81,19,5,19,0.10
2013-4-8,65.5,55.1,45.5,48.7,35.6,24.5,89,53,22,30.00,29.78,20,7,20,0.00
2013-4-9,72.4,60.7,47.2,36.7,31.6,25.8,66,35,18,30.08,30.00,22,6,22,0.00
2013-4-10,84.6,65.4,51.1,51.4,43.2,32.2,77,47,28,30.17,30.02,14,5,14,0.00
2013-4-11,73.1,59.3,49.0,52.1,47.1,39.7,85,66,45,30.04,29.84,12,4,12,0.00
2013-4-12,78.5,58.8,40.7,50.7,42.7,34.7,83,59,31,29.90,29.81,10,2,10,0.00
2013-4-13,70.9,55.4,43.9,51.2,43.4,37.2,82,65,47,29.89,29.81,18,5,18,0.00
2013-4-14,68.9,54.3,40.7,45.8,41.6,34.7,83,64,38,29.92,29.82,17,5,17,0.00
2013-4-15,61.2,52.0,45.7,46.6,41.1,35.0,87,68,43,29.93,29.82,23,7,23,0.01
2013-4-16,65.9,53.2,37.1,38.6,29.5,16.3,81,47,16,30.12,29.93,17,3,17,0.00
2013-4-17,66.8,57.2,45.4,30.3,25.5,20.3,47,31,18,30.24,30.12,19,4,19,0.00
2013-4-18,74.7,58.7,41.4,39.5,30.9,23.3,63,37,21,30.26,30.15,13,1,13,0.00
2013-4-19,83.2,64.0,43.9,48.2,41.0,31.5,68,45,25,30.22,30.05,8,1,8,0.00
2013-4-20,80.8,64.7,47.5,48.2,41.1,36.5,77,46,22,30.10,29.96,20,1,20,0.00
2013-4-21,86.4,67.7,47.2,47.2,38.6,30.0,71,39,16,30.04,29.91,14,1,14,0.00
2013-4-22,86.8,70.8,54.0,47.3,37.1,24.9,58,33,12,29.97,29.83,11,0,11,0.00
2013-4-23,82.6,69.4,56.0,43.5,29.5,20.2,60,26,12,29.95,29.83,14,1,14,0.00
2013-4-24,78.8,60.7,44.3,50.6,42.4,33.1,74,53,30,29.93,29.81,9,0,9,0.00
2013-4-25,72.0,59.0,48.6,51.8,47.2,42.0,83,66,49,30.12,29.92,11,2,11,0.00
2013-4-26,79.4,62.3,52.4,55.0,48.5,43.3,78,62,40,30.20,30.11,9,1,9,0.00
2013-4-27,85.9,63.8,49.5,56.5,48.1,42.1,82,60,34,30.21,30.05,8,2,8,0.00
2013-4-28,90.0,67.9,46.1,55.6,47.8,38.3,80,52,25,30.06,29.87,8,1,8,0.00
2013-4-29,92.3,74.1,56.5,49.8,45.3,38.6,66,40,22,29.90,29.75,15,2,15,0.00
2013-4-30,83.5,68.8,50.9,51.7,32.9,12.1,76,36,8,29.86,29.78,14,2,14,0.00
2013-5-1,83.9,72.2,61.6,33.5,23.9,12.3,28,17,11,30.08,29.85,20,3,20,0.00
2013-5-2,92.2,73.4,55.4,34.5,27.2,16.1,36,20,10,30.17,30.07,11,1,11,0.00
2013-5-3,92.5,72.2,50.0,41.0,32.8,25.2,51,27,10,30.09,29.79,6,0,6,0.00
2013-5-4,90.0,72.1,53.1,43.3,34.9,26.6,55,29,12,29.79,29.53,17,1,17,0.00
2013-5-5,75.4,62.6,51.7,50.0,45.4,39.2,69,54,39,29.79,29.57,16,2,16,0.00
2013-5-6,72.5,63.4,57.2,56.4,49.9,45.6,73,62,44,29.96,29.79,10,1,10,0.10
2013-5-7,76.7,63.9,52.9,54.5,49.4,44.9,81,61,39,30.04,29.95,10,2,10,0.00
2013-5-8,70.9,60.4,52.0,53.1,48.3,44.8,81,66,46,30.13,30.02,11,1,11,0.00
2013-5-9,74.2,60.3,52.7,54.7,49.2,45.5,81,68,49,30.17,30.07,10,1,10,0.00
2013-5-10,80.8,62.8,51.8,58.2,50.8,46.1,85,67,43,30.17,30.07,8,1,8,0.00
2013-5-11,94.7,71.3,49.7,59.2,50.3,43.4,83,52,22,30.13,30.02,8,1,8,0.00
2013-5-12,88.9,71.5,52.4,56.4,48.8,41.1,73,47,30,30.12,30.02,8,1,8,0.00
2013-5-13,86.8,68.5,52.2,56.3,48.6,40.6,73,51,31,30.08,29.94,10,2,10,0.00
2013-5-14,81.0,65.1,51.7,54.5,47.7,42.3,77,55,34,30.00,29.91,12,3,12,0.00
2013-5-15,72.4,59.5,50.8,48.0,44.8,41.6,78,60,36,30.05,29.99,16,5,16,0.00
2013-5-16,73.6,60.2,53.3,57.4,50.3,45.4,86,71,45,30.03,29.96,15,5,15,0.04
2013-5-17,73.1,60.0,50.8,49.5,45.1,40.6,80,60,34,30.07,29.96,13,4,13,0.00
2013-5-18,79.6,61.9,47.0,52.2,46.9,40.1,81,60,37,30.11,30.06,12,2,12,0.00
2013-5-19,85.0,67.5,47.3,53.2,43.6,33.8,80,48,18,30.11,29.96,14,2,14,0.00
2013-5-20,90.7,71.2,50.8,50.7,36.9,27.8,63,34,12,30.00,29.91,13,2,13,0.00
2013-5-21,72.0,60.4,50.4,49.2,43.9,39.8,72,56,33,29.97,29.90,21,4,21,0.00
2013-5-22,70.0,56.3,40.9,42.8,36.2,25.3,77,51,21,29.99,29.90,12,1,12,0.00
2013-5-23,73.6,58.0,47.5,44.5,41.7,38.6,77,57,34,30.00,29.90,16,1,16,0.00
2013-5-24,76.7,58.4,41.0,46.5,40.1,32.4,75,54,26,29.99,29.93,14,2,14,0.00
2013-5-25,71.5,57.6,46.8,47.3,43.8,39.3,81,62,39,30.04,29.95,18,3,18,0.00
2013-5-26,73.1,61.1,52.2,53.4,49.3,46.3,84,67,44,30.12,30.03,14,5,14,0.00
2013-5-27,69.5,59.7,52.6,56.0,50.7,46.3,82,73,59,30.12,29.98,13,5,13,0.01
2013-5-28,75.2,64.2,56.0,57.7,53.1,48.1,86,69,44,29.99,29.90,14,4,14,0.00
2013-5-29,75.1,62.8,53.6,56.1,50.2,45.5,79,65,41,29.96,29.89,15,5,15,0.00
2013-5-30,81.7,63.6,47.0,51.9,45.6,40.0,84,56,26,29.98,29.91,14,3,14,0.00
2013-5-31,92.2,70.3,46.8,51.2,43.3,36.8,73,43,18,30.00,29.90,11,2,11,0.00
2013-6-1,97.6,77.1,53.1,52.3,45.0,38.1,62,36,17,29.92,29.76,11,2,11,0.00
2013-6-2,92.3,73.2,54.7,55.3,49.2,41.9,64,45,27,29.78,29.65,12,3,12,0.00
2013-6-3,84.8,70.6,52.7,55.0,50.6,44.6,76,51,34,29.84,29.70,13,4,13,0.00
2013-6-4,78.1,63.1,53.6,56.0,50.4,46.4,79,65,44,29.93,29.83,15,4,15,0.00
2013-6-5,80.5,62.6,54.4,55.4,49.9,46.7,80,65,41,29.98,29.88,11,4,11,0.00
2013-6-6,89.1,66.3,53.6,59.2,51.9,45.9,81,62,34,29.94,29.82,10,3,10,0.00
2013-6-7,103.0,76.1,55.1,63.8,54.9,48.0,81,53,24,29.87,29.72,8,2,8,0.00
2013-6-8,107.3,78.3,61.7,62.6,53.3,48.0,65,45,22,29.77,29.66,11,3,11,0.00
2013-6-9,80.3,67.4,59.0,57.3,53.6,50.5,76,62,44,29.86,29.76,17,6,17,0.00
2013-6-10,77.4,65.0,56.5,54.6,51.5,48.2,80,63,43,29.93,29.80,17,4,17,0.01
2013-6-11,86.0,67.7,55.8,58.8,52.7,47.5,77,60,39,29.96,29.88,10,3,10,0.00
2013-6-12,84.1,66.8,51.5,55.5,46.6,40.7,78,52,23,29.99,29.89,16,4,16,0.00
2013-6-13,86.2,67.7,50.4,50.0,45.5,38.3,77,49,26,30.07,29.98,10,3,10,0.00
2013-6-14,90.4,66.2,50.8,45.5,37.6,33.2,64,38,18,29.98,29.82,13,3,13,0.00
2013-6-15,83.3,66.6,51.3,53.2,46.3,34.9,72,50,30,29.99,29.81,14,4,14,0.00
2013-6-16,86.0,67.2,50.2,53.4,47.9,41.5,78,53,28,30.07,29.99,15,4,15,0.00
2013-6-17,78.1,65.1,52.9,55.8,51.0,46.3,80,62,40,30.07,30.02,16,6,16,0.00
2013-6-18,72.7,62.9,54.2,52.7,49.6,46.5,82,64,41,30.03,29.96,16,8,16,0.00
2013-6-19,78.8,63.0,50.9,52.4,47.4,43.8,82,60,31,30.03,29.98,13,5,14,0.00
2013-6-20,83.7,65.3,49.3,52.7,46.7,41.1,78,54,28,30.00,29.92,15,4,15,0.00
2013-6-21,88.6,68.6,47.5,52.6,46.1,39.4,76,49,22,29.97,29.90,13,3,13,0.00
2013-6-22,92.5,71.2,49.7,50.6,45.0,38.0,71,43,17,29.92,29.83,13,3,13,0.00
2013-6-23,73.3,64.4,57.1,60.1,55.5,48.6,87,73,61,29.88,29.80,17,6,17,0.00
2013-6-24,73.8,66.2,60.1,62.6,58.5,55.4,85,77,64,29.89,29.77,8,2,8,0.04
2013-6-25,84.1,71.5,63.0,63.9,60.7,57.1,83,70,50,29.97,29.88,14,4,14,0.00
2013-6-26,88.4,74.4,61.2,65.6,60.1,54.7,83,63,42,30.04,29.96,12,3,12,0.00
2013-6-27,96.8,78.0,58.3,63.6,57.4,49.4,80,53,29,30.07,29.99,10,2,10,0.00
2013-6-28,103.7,83.7,60.3,62.9,53.4,47.4,65,39,18,30.03,29.89,16,3,16,0.00
2013-6-29,105.8,85.8,62.6,58.2,52.2,46.5,60,35,17,29.91,29.79,12,3,12,0.00
2013-6-30,100.8,82.2,62.1,59.5,53.4,46.7,59,40,22,29.84,29.75,12,3,12,0.00
2013-7-1,103.7,83.1,62.1,60.5,53.4,47.5,65,40,20,29.83,29.78,12,3,12,0.00
2013-7-2,106.2,85.0,68.6,63.5,56.9,51.2,60,41,23,29.90,29.81,10,3,10,0.00
2013-7-3,103.9,82.3,63.2,63.0,56.7,51.6,72,45,23,29.89,29.74,11,2,11,0.00
2013-7-4,104.6,85.6,71.1,63.7,56.8,46.7,60,40,22,29.76,29.66,10,2,10,0.00
2013-7-5,81.4,68.9,58.0,55.7,50.7,43.8,71,53,41,29.78,29.71,14,5,14,0.00
2013-7-6,87.3,69.3,54.0,55.8,51.5,47.0,80,56,32,29.78,29.70,10,2,10,0.00
2013-7-7,92.9,71.2,50.4,56.3,50.6,43.1,80,52,22,29.84,29.74,9,1,9,0.00
2013-7-8,94.5,73.1,55.4,56.9,51.3,46.0,78,51,23,29.95,29.84,6,1,6,0.00
2013-7-9,102.2,79.1,54.0,58.0,48.5,36.4,71,40,12,30.01,29.90,5,1,5,0.00
2013-7-10,94.5,74.7,57.8,57.4,50.1,43.5,74,45,23,29.96,29.86,8,2,8,0.00
2013-7-11,86.6,68.0,56.5,55.0,51.2,46.3,80,58,30,29.93,29.84,9,2,9,0.00
2013-7-12,88.6,69.8,50.9,56.8,48.7,42.1,81,51,27,29.91,29.85,9,2,9,0.00
2013-7-13,94.7,73.6,49.9,55.3,45.9,39.1,72,42,17,29.94,29.87,6,1,6,0.00
2013-7-14,90.2,72.7,55.1,55.9,48.7,40.7,76,46,24,29.98,29.87,7,0,7,0.00
2013-7-15,83.2,65.6,55.4,56.3,51.4,45.6,79,62,39,29.90,29.80,7,0,7,0.00
2013-7-16,75.4,64.7,56.2,54.5,52.0,48.0,78,65,47,30.03,29.85,14,4,16,0.00
2013-7-17,87.8,69.8,58.3,59.1,53.9,49.1,79,60,34,30.08,29.99,9,2,9,0.00
2013-7-18,93.4,63.2,55.3,56.3,49.7,44.2,81,66,19,30.05,29.91,6,2,6,0.00
2013-7-19,95.6,80.3,54.4,59.5,53.7,46.0,81,42,24,29.93,29.79,6,1,6,0.00
2013-7-20,95.8,69.3,56.3,59.9,52.6,48.2,80,60,24,29.84,29.70,10,3,10,0.00
2013-7-21,94.3,73.4,55.8,57.5,52.7,49.0,79,51,25,29.85,29.74,10,3,10,0.00
2013-7-22,89.8,69.4,58.5,61.3,54.1,49.8,77,60,35,29.93,29.85,6,1,6,0.00
2013-7-23,92.9,79.2,65.2,60.8,54.9,46.9,67,45,30,29.98,29.92,7,1,7,0.00
2013-7-24,96.5,77.4,60.1,57.9,48.9,35.9,72,42,19,29.97,29.88,8,0,8,0.00
2013-7-25,92.5,79.5,61.9,56.3,50.4,45.7,67,38,26,29.99,29.91,7,1,7,0.00
2013-7-26,93.6,79.3,58.0,59.1,54.8,47.8,76,45,29,30.07,29.97,10,3,10,0.00
2013-7-27,91.6,72.0,58.0,59.7,54.5,49.4,81,57,33,30.01,29.83,9,2,9,0.00
2013-7-28,86.2,69.5,57.4,58.0,53.7,48.4,80,60,37,29.86,29.76,12,1,12,0.00
2013-7-29,83.2,65.4,52.2,55.6,51.0,45.5,82,62,38,29.99,29.82,10,2,10,0.00
2013-7-30,88.2,67.9,52.9,58.4,52.3,45.5,81,60,34,30.07,29.99,7,1,7,0.00
2013-7-31,85.0,67.3,56.5,56.9,51.3,47.6,81,60,29,30.06,29.99,14,1,14,0.00
2013-8-1,80.8,65.8,52.2,53.8,49.6,45.4,81,59,35,30.05,29.95,11,1,11,0.00
2013-8-2,87.7,65.8,48.1,56.3,48.4,40.1,84,57,25,29.96,29.87,8,1,10,0.00
2013-8-3,87.1,68.0,50.9,55.5,50.8,42.5,81,57,30,29.96,29.86,6,0,6,0.00
2013-8-4,85.0,66.3,56.3,57.8,52.4,47.7,81,63,37,30.00,29.91,10,1,10,0.00
2013-8-5,83.7,66.3,56.3,58.4,53.1,48.1,82,65,39,30.00,29.90,11,1,11,0.00
2013-8-6,78.8,64.3,56.5,57.4,52.9,49.3,83,68,46,30.03,29.95,15,1,15,0.00
2013-8-7,77.2,65.4,58.7,55.5,53.4,51.1,80,67,46,30.07,30.02,10,2,10,0.00
2013-8-8,79.6,65.3,56.5,58.3,54.0,49.9,82,68,45,30.02,29.91,12,1,12,0.00
2013-8-9,77.8,65.2,56.5,57.4,53.6,50.8,82,68,49,29.98,29.90,10,1,10,0.00
2013-8-10,81.4,66.5,57.6,60.0,54.7,50.8,83,68,43,30.03,29.97,13,2,13,0.00
2013-8-11,85.7,68.5,58.1,59.6,54.6,50.1,85,64,36,30.02,29.91,9,2,9,0.00
2013-8-12,87.3,69.0,52.2,58.3,50.7,45.0,84,56,28,29.98,29.91,11,2,11,0.00
2013-8-13,94.7,72.1,50.6,55.2,48.1,40.4,78,47,17,29.98,29.89,8,1,8,0.00
2013-8-14,88.6,70.5,52.4,56.2,51.0,42.8,77,53,23,29.97,29.90,13,2,13,0.00
2013-8-15,89.3,73.6,62.6,64.5,60.0,55.3,82,65,42,29.96,29.90,11,2,11,0.00
2013-8-16,90.9,74.2,58.5,64.4,56.5,45.5,84,58,32,29.97,29.92,11,2,11,0.00
2013-8-17,86.2,70.0,58.0,58.2,53.7,48.0,75,58,37,29.97,29.86,10,1,10,0.00
2013-8-18,98.1,75.9,55.3,62.7,55.2,48.5,82,53,25,29.88,29.76,6,1,6,0.00
2013-8-19,102.4,80.7,63.2,61.5,54.6,49.6,64,43,19,29.89,29.78,5,0,5,0.00
2013-8-20,90.7,74.6,61.9,60.4,55.3,50.0,74,53,32,29.87,29.78,10,0,10,0.00
2013-8-21,85.9,68.3,56.7,58.1,53.4,49.0,79,61,36,29.92,29.82,8,1,8,0.00
2013-8-22,80.1,65.5,56.2,57.3,53.2,49.5,81,66,45,29.95,29.86,7,0,7,0.00
2013-8-23,83.2,66.5,56.7,57.9,53.5,49.1,79,65,39,29.92,29.80,0,0,0,0.00
2013-8-24,84.1,67.7,54.0,59.0,54.1,48.0,84,64,41,29.90,29.84,10,0,10,0.00
2013-8-25,87.5,70.3,61.6,62.8,58.7,54.3,83,69,39,29.93,29.86,12,0,12,0.00
2013-8-26,83.0,68.9,59.8,60.3,55.8,51.1,79,65,40,30.00,29.89,0,0,0,0.00
2013-8-27,87.1,68.3,52.4,58.5,52.8,45.5,83,61,29,29.91,29.80,7,0,7,0.00
2013-8-28,85.7,70.3,58.3,62.0,57.5,53.5,85,66,39,29.94,29.84,8,2,8,0.00
2013-8-29,85.5,71.1,61.7,64.2,58.5,53.3,85,67,34,30.04,29.94,6,0,6,0.00
2013-8-30,94.0,73.2,54.5,62.5,55.7,48.3,85,58,27,30.04,29.90,5,0,5,0.00
2013-8-31,87.3,71.4,56.5,57.5,52.7,46.4,77,54,31,29.97,29.87,12,2,12,0.00
2013-9-1,87.7,72.1,61.2,59.2,55.4,52.6,75,58,33,29.93,29.85,14,2,14,0.00
2013-9-2,83.9,69.6,64.1,63.7,59.4,56.8,82,71,44,29.95,29.89,0,0,0,0.00
2013-9-3,79.0,64.3,59.4,58.0,55.4,51.5,83,74,39,29.99,29.92,0,0,0,0.00
2013-9-4,81.5,68.6,59.0,58.2,55.7,53.1,83,65,43,30.03,29.93,10,1,10,0.00
2013-9-5,80.5,67.5,59.0,57.2,54.9,51.8,82,66,41,30.01,29.94,9,1,9,0.00
2013-9-6,88.6,69.5,49.3,55.3,47.1,41.3,84,51,23,29.99,29.82,8,0,8,0.00
2013-9-7,94.9,74.3,54.4,51.6,44.4,38.0,61,37,19,29.87,29.78,8,1,8,0.00
2013-9-8,96.1,74.7,55.8,57.8,48.4,41.0,63,42,19,29.86,29.73,4,0,4,0.00
2013-9-9,97.7,76.3,57.8,54.6,47.5,40.1,62,39,19,29.80,29.68,7,0,7,0.00
2013-9-10,85.5,70.1,59.9,58.7,54.5,44.8,79,60,37,29.88,29.72,0,0,0,0.00
2013-9-11,78.1,62.2,54.9,58.1,53.1,48.8,84,73,50,29.98,29.88,0,0,0,0.00
2013-9-12,82.8,72.0,60.3,61.6,57.7,53.8,79,62,45,29.96,29.86,0,0,0,0.00
2013-9-13,83.7,69.4,58.7,60.7,54.7,50.6,84,62,42,29.90,29.75,0,0,0,0.00
2013-9-14,74.2,65.5,56.9,58.8,55.0,51.4,86,70,56,29.83,29.73,0,0,0,0.00
2013-9-15,80.6,65.7,56.2,62.0,55.1,51.5,86,71,44,29.86,29.78,14,2,14,0.00
2013-9-16,83.2,66.4,54.4,61.5,56.0,49.6,88,71,40,29.89,29.78,16,3,16,0.00
2013-9-17,73.8,64.0,55.1,56.1,53.6,47.6,82,70,50,29.87,29.81,20,7,20,0.00
2013-9-18,83.2,64.8,49.1,52.4,46.1,41.0,85,55,28,29.91,29.80,14,3,14,0.00
2013-9-19,88.9,67.4,47.7,49.8,42.3,36.1,72,45,17,29.86,29.73,11,2,11,0.00
2013-9-20,74.9,64.1,54.2,59.5,52.2,39.7,77,66,47,29.86,29.76,15,5,15,0.00
2013-9-21,70.6,62.4,56.2,59.1,54.9,51.3,85,77,56,29.89,29.80,16,4,16,0.03
2013-9-22,73.3,61.4,52.9,56.7,52.8,49.4,89,75,52,30.00,29.89,11,2,11,0.00
2013-9-23,80.3,64.5,50.0,58.4,53.2,45.6,88,69,41,30.01,29.91,10,2,10,0.00
2013-9-24,74.0,63.3,55.8,58.6,53.3,49.9,85,71,49,29.99,29.89,16,6,16,0.00
2013-9-25,70.0,59.6,51.1,49.9,47.5,43.8,82,66,45,29.92,29.81,14,5,14,0.00
2013-9-26,73.4,57.9,44.5,46.9,41.0,30.9,82,57,21,29.98,29.82,15,2,15,0.00
2013-9-27,75.1,60.6,47.5,42.9,37.3,32.9,64,45,22,30.09,29.97,14,3,14,0.00
2013-9-28,82.1,63.5,45.9,52.4,39.4,33.7,78,45,18,30.07,29.96,9,2,9,0.00
2013-9-29,76.5,64.1,51.1,57.1,53.1,44.5,81,69,49,30.10,30.02,11,3,11,0.00
2013-9-30,76.0,65.8,56.3,60.1,56.4,50.9,85,73,56,30.07,29.95,10,3,10,0.00
2013-10-1,73.8,61.7,52.0,54.3,48.8,42.6,83,64,41,30.00,29.91,11,3,11,0.00
2013-10-2,76.7,59.9,47.5,51.0,45.4,41.0,81,61,36,30.00,29.91,12,3,12,0.00
2013-10-3,71.1,60.7,45.0,41.8,34.0,27.6,78,42,21,30.06,29.93,22,6,24,0.00
2013-10-4,76.7,65.9,58.0,34.7,30.8,27.0,37,27,18,30.11,29.97,23,7,23,0.00
2013-10-5,80.3,64.5,49.7,36.1,30.0,25.9,44,29,16,30.20,30.09,11,4,11,0.00
2013-10-6,82.8,63.3,43.7,42.0,32.3,26.2,55,34,17,30.12,29.99,13,3,13,0.00
2013-10-7,82.8,64.5,48.4,41.0,34.4,28.5,58,35,17,30.00,29.86,10,2,10,0.00
2013-10-8,75.8,61.5,48.6,43.7,38.3,30.3,66,44,28,29.90,29.71,18,3,18,0.00
2013-10-9,70.9,55.9,45.5,48.6,42.4,37.6,80,62,40,29.75,29.61,9,2,9,0.00
2013-10-10,73.1,57.9,45.7,46.3,40.8,36.5,75,56,30,29.99,29.75,9,2,9,0.00
2013-10-11,71.6,55.7,42.8,50.8,43.4,35.8,80,64,46,30.06,29.95,8,2,8,0.00
2013-10-12,74.0,55.3,40.3,49.1,42.1,33.9,81,64,35,29.99,29.88,12,3,12,0.00
2013-10-13,72.0,57.3,44.1,48.4,41.3,35.5,84,59,29,30.06,29.91,14,3,14,0.00
2013-10-14,75.1,58.6,43.6,42.8,36.1,30.2,72,46,23,30.11,29.99,13,3,13,0.00
2013-10-15,76.3,60.8,45.4,37.1,33.2,29.9,59,38,22,30.05,29.95,12,4,12,0.00
2013-10-16,79.6,57.0,42.8,39.3,33.3,28.8,60,43,22,30.09,29.99,8,1,8,0.00
2013-10-17,79.6,60.8,44.3,41.0,34.1,29.0,60,39,21,30.07,29.95,9,2,9,0.00
2013-10-18,80.1,61.0,42.8,41.3,34.5,28.3,60,39,22,30.04,29.96,8,1,8,0.00
2013-10-19,80.3,61.4,43.4,44.6,36.5,31.3,65,42,24,30.07,29.98,11,2,11,0.00
2013-10-20,81.5,60.3,42.8,47.4,37.7,30.4,64,45,21,30.02,29.89,8,1,8,0.00
2013-10-21,77.8,57.8,42.5,49.5,40.6,31.5,75,54,31,29.99,29.88,5,1,5,0.00
2013-10-22,79.7,58.5,42.1,51.8,41.1,34.1,81,56,27,30.00,29.89,10,2,10,0.00
2013-10-23,78.3,56.3,41.6,52.2,43.3,33.1,81,63,39,29.96,29.86,9,2,9,0.00
2013-10-24,62.1,54.4,45.7,50.8,46.8,39.4,84,76,64,30.09,29.95,10,3,10,0.00
2013-10-25,74.2,56.8,42.8,52.8,45.9,37.4,85,69,42,30.15,30.05,6,1,6,0.00
2013-10-26,77.8,57.7,41.4,48.5,40.1,31.5,80,55,29,30.13,30.00,11,2,11,0.00
2013-10-27,63.5,53.0,42.5,50.3,42.4,31.2,82,68,48,30.02,29.66,25,6,25,0.00
2013-10-28,62.3,54.4,48.6,48.6,45.0,42.9,86,71,52,29.84,29.65,14,5,14,0.00
2013-10-29,62.5,54.7,44.8,49.0,44.8,37.4,79,70,56,30.03,29.84,9,2,9,0.00
2013-10-30,65.9,51.1,38.5,48.3,40.4,33.2,87,68,48,30.13,30.03,10,1,10,0.00
2013-10-31,70.0,53.4,39.8,48.3,39.3,33.3,83,61,37,30.16,30.05,8,2,8,0.00
2013-11-1,73.3,55.6,41.0,46.6,39.4,32.4,74,56,37,30.13,30.01,14,3,14,0.00
2013-11-2,73.3,54.5,39.4,49.4,41.4,32.1,78,63,42,30.02,29.89,13,2,13,0.00
2013-11-3,64.1,53.7,44.8,40.1,28.9,22.2,79,41,23,30.02,29.91,16,3,16,0.00
2013-11-4,66.6,52.5,36.7,33.6,26.9,23.8,67,40,21,30.06,29.89,22,4,22,0.00
2013-11-5,68.6,58.2,48.1,34.9,30.3,25.8,47,35,26,30.22,30.05,15,4,15,0.00
2013-11-6,69.1,54.9,40.3,39.4,33.2,26.6,61,45,31,30.24,30.15,16,3,16,0.00
2013-11-7,72.9,55.8,44.5,40.3,34.7,29.2,62,46,26,30.16,30.05,7,1,7,0.00
2013-11-8,73.1,55.0,41.2,47.9,38.8,29.2,69,56,37,30.07,29.94,8,1,8,0.00
2013-11-9,71.3,54.4,40.7,49.4,40.4,33.9,81,61,38,30.02,29.95,8,2,8,0.00
2013-11-10,67.9,51.6,39.6,48.8,39.6,31.8,78,65,45,30.10,30.01,7,1,7,0.00
2013-11-11,67.1,53.8,41.0,50.8,42.7,33.7,84,68,47,30.15,30.05,7,1,7,0.00
2013-11-12,72.9,59.0,47.5,51.2,44.1,35.2,74,59,37,30.24,30.12,9,2,9,0.00
2013-11-13,75.2,56.3,41.0,48.2,40.1,32.7,77,57,34,30.24,30.08,9,1,9,0.00
2013-11-14,71.8,53.2,41.8,54.3,44.3,34.6,84,73,52,30.09,29.85,10,3,10,0.00
2013-11-15,64.1,49.4,40.9,46.3,39.5,30.7,86,70,34,29.87,29.71,9,2,9,0.00
2013-11-16,61.0,49.1,38.0,46.5,40.0,30.2,84,72,50,29.92,29.76,12,3,12,0.00
2013-11-17,62.1,50.9,41.2,49.0,42.7,35.9,87,74,58,30.08,29.91,7,1,7,0.00
2013-11-18,60.5,49.2,39.1,47.9,41.5,33.6,87,75,59,30.12,30.05,10,2,10,0.00
2013-11-19,65.2,54.5,44.5,52.7,47.7,38.3,87,78,62,30.09,29.94,8,1,8,0.26
2013-11-20,65.2,56.7,51.8,59.5,53.1,49.0,91,88,79,29.94,29.83,10,1,10,0.64
2013-11-21,58.0,52.8,47.9,50.0,36.0,23.1,91,57,31,29.98,29.87,20,6,20,0.20
2013-11-22,65.9,52.2,42.1,34.2,25.7,18.1,68,38,19,30.02,29.89,25,6,25,0.00
2013-11-23,60.7,47.2,36.7,40.1,34.6,29.9,79,63,41,30.10,29.96,11,2,11,0.00
2013-11-24,61.7,47.1,35.5,43.8,37.0,29.7,84,69,47,30.24,30.08,10,1,10,0.00
2013-11-25,60.5,46.7,35.3,45.8,37.7,30.2,86,72,54,30.31,30.23,11,2,11,0.00
2013-11-26,58.7,48.4,39.1,44.5,39.6,34.0,88,72,54,30.26,30.02,14,3,14,0.00
2013-11-27,59.2,49.1,39.1,47.2,41.9,34.4,88,77,63,30.02,29.84,12,2,12,0.00
2013-11-28,65.9,51.0,41.0,47.6,40.4,34.8,86,69,43,30.07,29.86,8,2,8,0.00
2013-11-29,66.2,49.6,37.8,47.2,38.8,32.5,85,68,43,30.21,30.06,7,1,7,0.00
2013-11-30,64.1,49.2,37.1,47.0,38.8,31.7,85,68,48,30.25,30.17,9,1,9,0.00
2013-12-1,67.3,50.4,37.4,47.6,38.6,31.9,85,66,39,30.32,30.19,13,2,13,0.00
2013-12-2,63.5,50.1,37.8,49.8,42.5,32.2,88,76,55,30.22,29.93,11,3,14,0.00
2013-12-3,54.0,47.8,33.5,50.9,38.1,24.3,90,70,52,29.94,29.82,17,4,17,0.00
2013-12-4,47.0,37.0,29.2,24.6,19.3,15.1,70,51,31,30.06,29.91,14,3,14,0.00
2013-12-5,47.2,35.4,26.8,20.8,16.7,13.7,62,48,31,30.15,30.05,9,3,9,0.00
2013-12-6,51.7,39.5,25.6,42.3,27.5,14.9,83,63,45,30.15,29.88,14,3,14,0.32
2013-12-7,47.2,41.1,31.0,42.9,30.7,23.4,86,68,45,30.22,29.89,16,4,16,0.11
2013-12-8,41.4,33.3,28.4,26.1,22.8,19.8,79,66,45,30.30,30.19,12,4,12,0.00
2013-12-9,43.7,34.3,28.1,27.1,21.6,17.1,75,60,46,30.39,30.28,12,4,12,0.00
2013-12-10,48.1,35.3,25.0,29.3,24.4,18.5,82,66,45,30.38,30.17,14,3,14,0.00
2013-12-11,50.2,37.5,26.8,32.1,26.4,20.3,81,65,47,30.22,30.15,17,3,17,0.00
2013-12-12,55.8,39.4,26.8,35.8,27.9,20.5,79,65,44,30.25,30.14,8,1,8,0.00
2013-12-13,56.5,38.8,28.1,37.4,27.7,21.8,83,66,39,30.30,30.20,9,2,10,0.00
2013-12-14,55.4,40.9,29.9,37.7,29.9,23.7,81,66,47,30.38,30.29,15,2,15,0.00
2013-12-15,58.7,42.5,30.1,38.6,31.4,24.0,81,66,46,30.35,30.22,14,3,14,0.04
2013-12-16,63.2,47.1,37.1,38.4,33.5,29.5,79,61,37,30.22,30.11,14,3,14,0.00
2013-12-17,62.1,45.5,35.3,43.6,34.3,27.7,79,66,45,30.17,30.02,8,1,8,0.00
2013-12-18,63.7,50.3,40.3,44.3,39.9,33.7,83,69,45,30.02,29.74,14,3,14,0.00
2013-12-19,57.4,48.1,38.5,42.9,31.2,19.6,86,56,31,29.91,29.69,20,5,20,0.00
2013-12-20,58.3,47.9,38.0,19.7,15.1,7.9,47,28,15,29.99,29.91,16,4,16,0.00
2013-12-21,60.1,49.5,32.8,40.5,33.8,20.9,68,55,46,30.07,29.95,5,1,5,0.00
2013-12-22,61.4,49.4,37.1,38.3,33.7,29.4,76,56,39,30.28,30.07,9,2,9,0.00
2013-12-23,59.9,41.0,33.8,39.9,31.3,27.0,80,69,46,30.36,30.26,13,2,13,0.00
2013-12-24,65.2,45.2,36.0,42.9,32.9,29.2,81,63,40,30.32,30.19,7,2,7,0.00
2013-12-25,60.1,47.9,35.1,41.0,35.0,27.2,77,61,48,30.28,30.19,15,4,15,0.00
2013-12-26,62.5,45.7,32.6,42.4,34.2,26.3,81,65,46,30.24,30.15,13,2,13,0.00
2013-12-27,60.3,46.8,31.7,43.3,36.1,25.3,80,67,50,30.22,30.09,9,2,9,0.00
2013-12-28,63.2,47.0,32.0,38.6,29.0,24.1,81,54,25,30.13,30.01,13,3,13,0.00
2013-12-29,60.5,50.0,36.9,34.8,27.3,20.4,61,42,29,30.17,30.08,14,4,15,0.00
2013-12-30,62.5,43.9,30.8,39.4,29.9,22.1,74,59,37,30.24,30.15,9,1,9,0.00
2013-12-31,60.5,44.4,33.3,40.0,30.5,24.3,76,59,38,30.25,30.12,10,2,10,0.00
2014-1-1,63.7,45.7,31.1,35.9,27.2,22.0,73,51,27,30.19,30.10,10,2,10,0.00
2014-1-2,63.4,47.4,34.2,36.0,30.3,24.3,71,53,33,30.16,30.04,13,3,13,0.00